Time;durP1;ratioP1;P1;durP2;ratioP2;P2;SDS_P1;SDS_P2;PMS_P1;PMS_P2;Temp;Humidity;BMP_temperature;BMP_pressure;BME280_temperature;BME280_humidity;BME280_pressure;Samples;Min_cycle;Max_cycle;Signal;HPM_P1;HPM_P2
2022/07/12 00:00:01;;;;;;;3.63;1.63;;;14.60;99.90;;;;;;4817339;29;20510;-69
2022/07/12 00:02:31;;;;;;;2.72;1.52;;;14.50;99.90;;;;;;4805454;29;20058;-67
2022/07/12 00:04:59;;;;;;;2.78;1.45;;;14.50;99.90;;;;;;4816945;29;20050;-67
2022/07/12 00:07:26;;;;;;;2.40;1.40;;;14.50;99.90;;;;;;4809358;29;20057;-68
2022/07/12 00:09:56;;;;;;;2.05;1.23;;;14.50;99.90;;;;;;4810025;29;20049;-68
2022/07/12 00:12:24;;;;;;;3.92;1.50;;;14.50;99.90;;;;;;4793870;29;20616;-69
2022/07/12 00:14:51;;;;;;;4.03;1.63;;;14.40;99.90;;;;;;4810843;29;21800;-68
2022/07/12 00:17:18;;;;;;;3.33;1.30;;;14.40;99.90;;;;;;4806752;29;20139;-68
2022/07/12 00:19:46;;;;;;;4.07;1.73;;;14.40;99.90;;;;;;4807587;29;20115;-69
2022/07/12 00:22:13;;;;;;;3.15;1.70;;;14.30;99.90;;;;;;4808032;29;20453;-68
2022/07/12 00:24:41;;;;;;;2.42;1.27;;;14.30;99.90;;;;;;4814468;29;20153;-69
2022/07/12 00:27:08;;;;;;;4.97;1.40;;;14.30;99.90;;;;;;4809565;29;20073;-68
2022/07/12 00:29:35;;;;;;;5.57;1.45;;;14.20;99.90;;;;;;4813460;29;20058;-68
2022/07/12 00:32:03;;;;;;;3.80;1.80;;;14.20;99.90;;;;;;4817222;29;20070;-68
2022/07/12 00:34:31;;;;;;;2.72;1.55;;;14.20;99.90;;;;;;4803714;29;20042;-68
2022/07/12 00:36:58;;;;;;;3.55;1.27;;;14.20;99.90;;;;;;4824824;29;20157;-69
2022/07/12 00:39:26;;;;;;;3.25;1.80;;;14.10;99.90;;;;;;4819801;29;20095;-68
2022/07/12 00:41:53;;;;;;;2.72;1.60;;;14.10;99.90;;;;;;4803170;29;20126;-68
2022/07/12 00:44:20;;;;;;;2.10;1.42;;;14.10;99.90;;;;;;4814143;29;20050;-68
2022/07/12 00:46:47;;;;;;;3.10;1.60;;;14.10;99.90;;;;;;4817162;29;20058;-68
2022/07/12 00:49:15;;;;;;;4.80;1.73;;;14.10;99.90;;;;;;4807769;29;20062;-67
2022/07/12 00:51:43;;;;;;;5.75;2.80;;;14.00;99.90;;;;;;4818704;29;20060;-68
2022/07/12 00:54:10;;;;;;;4.30;2.33;;;14.00;99.90;;;;;;4803892;29;20493;-68
2022/07/12 00:56:38;;;;;;;3.20;2.08;;;13.90;99.90;;;;;;4819437;29;20050;-68
2022/07/12 00:59:06;;;;;;;4.20;2.30;;;13.90;99.90;;;;;;4820537;29;20099;-67
2022/07/12 01:01:33;;;;;;;3.47;1.73;;;13.90;99.90;;;;;;4817375;29;20050;-68
2022/07/12 01:04:02;;;;;;;7.90;1.60;;;13.90;99.90;;;;;;4818322;29;20566;-68
2022/07/12 01:06:31;;;;;;;3.95;2.08;;;13.80;99.90;;;;;;4817968;29;20367;-68
2022/07/12 01:08:59;;;;;;;4.47;2.53;;;13.80;99.90;;;;;;4834599;29;20057;-69
2022/07/12 01:11:26;;;;;;;5.05;2.40;;;13.80;99.90;;;;;;4820559;29;20038;-69
2022/07/12 01:13:54;;;;;;;3.50;2.15;;;13.80;99.90;;;;;;4819384;29;20046;-68
2022/07/12 01:16:22;;;;;;;4.80;3.05;;;13.70;99.90;;;;;;4815029;29;20078;-68
2022/07/12 01:18:50;;;;;;;3.88;2.63;;;13.70;99.90;;;;;;4833298;29;20092;-69
2022/07/12 01:21:21;;;;;;;6.10;2.80;;;13.70;99.90;;;;;;4817815;29;20133;-68
2022/07/12 01:23:50;;;;;;;4.15;2.45;;;13.70;99.90;;;;;;4810023;29;20055;-68
2022/07/12 01:26:17;;;;;;;4.53;2.53;;;13.70;99.90;;;;;;4819556;29;20050;-68
2022/07/12 01:28:46;;;;;;;3.85;2.35;;;13.70;99.90;;;;;;4812555;29;20586;-68
2022/07/12 01:31:13;;;;;;;4.53;2.63;;;13.60;99.90;;;;;;4806446;29;20073;-68
2022/07/12 01:33:41;;;;;;;4.07;2.60;;;13.60;99.90;;;;;;4818984;29;20054;-68
2022/07/12 01:36:09;;;;;;;3.90;2.40;;;13.60;99.90;;;;;;4809703;29;20049;-68
2022/07/12 01:38:36;;;;;;;3.63;2.30;;;13.60;99.90;;;;;;4798057;29;20053;-68
2022/07/12 01:41:04;;;;;;;4.15;2.55;;;13.60;99.90;;;;;;4829230;29;20541;-68
2022/07/12 01:43:32;;;;;;;4.03;2.38;;;13.60;99.90;;;;;;4817977;29;20137;-68
2022/07/12 01:45:59;;;;;;;5.75;2.92;;;13.50;99.90;;;;;;4807162;29;20054;-68
2022/07/12 01:48:29;;;;;;;4.07;2.70;;;13.50;99.90;;;;;;4801054;29;20526;-68
2022/07/12 01:50:56;;;;;;;4.55;2.50;;;13.40;99.90;;;;;;4818567;29;20089;-68
2022/07/12 01:53:24;;;;;;;6.60;2.85;;;13.40;99.90;;;;;;4826393;29;20446;-68
2022/07/12 01:55:51;;;;;;;5.15;3.08;;;13.40;99.90;;;;;;4813116;29;20073;-69
2022/07/12 01:58:19;;;;;;;5.32;3.10;;;13.40;99.90;;;;;;4832570;29;20536;-68
2022/07/12 02:00:51;;;;;;;4.60;3.10;;;13.40;99.90;;;;;;4819748;29;20518;-68
2022/07/12 02:03:19;;;;;;;6.13;2.90;;;13.30;99.90;;;;;;4802605;29;20054;-68
2022/07/12 02:05:47;;;;;;;3.97;2.47;;;13.30;99.90;;;;;;4819952;29;20510;-68
2022/07/12 02:08:14;;;;;;;3.90;2.30;;;13.30;99.90;;;;;;4812537;29;20141;-68
2022/07/12 02:10:43;;;;;;;4.72;2.58;;;13.30;99.90;;;;;;4808301;29;20224;-68
2022/07/12 02:13:10;;;;;;;4.35;2.42;;;13.20;99.90;;;;;;4800146;29;20046;-68
2022/07/12 02:15:38;;;;;;;3.70;2.33;;;13.20;99.90;;;;;;4818788;29;20062;-68
2022/07/12 02:18:05;;;;;;;3.97;2.55;;;13.10;99.90;;;;;;4817619;29;20062;-68
2022/07/12 02:20:33;;;;;;;4.35;2.65;;;13.10;99.90;;;;;;4803090;29;20058;-68
2022/07/12 02:23:00;;;;;;;5.18;2.65;;;13.10;99.90;;;;;;4801247;29;20594;-67
2022/07/12 02:25:27;;;;;;;5.00;2.53;;;13.10;99.90;;;;;;4819381;29;20458;-67
2022/07/12 02:27:54;;;;;;;3.85;2.42;;;13.10;99.90;;;;;;4824934;29;20059;-67
2022/07/12 02:30:22;;;;;;;4.85;2.83;;;13.00;99.90;;;;;;4819067;29;20128;-67
2022/07/12 02:32:49;;;;;;;4.45;2.90;;;13.00;99.90;;;;;;4799973;29;20054;-68
2022/07/12 02:35:17;;;;;;;6.20;2.70;;;12.90;99.90;;;;;;4801645;29;20511;-68
2022/07/12 02:37:44;;;;;;;5.57;3.10;;;12.90;99.90;;;;;;4801388;29;20043;-68
2022/07/12 02:43:01;;;;;;;6.00;3.15;;;12.80;99.90;;;;;;4809766;29;20091;-68
2022/07/12 02:45:28;;;;;;;4.90;3.30;;;12.80;99.90;;;;;;4802190;29;20106;-68
2022/07/12 02:47:55;;;;;;;6.10;3.25;;;12.80;99.90;;;;;;4801352;29;20426;-68
2022/07/12 02:50:23;;;;;;;4.40;2.92;;;12.80;99.90;;;;;;4810062;29;20076;-68
2022/07/12 02:52:50;;;;;;;6.70;3.38;;;12.80;99.90;;;;;;4818136;29;20473;-68
2022/07/12 02:55:18;;;;;;;4.45;2.80;;;12.80;99.90;;;;;;4827522;29;20103;-68
2022/07/12 02:57:45;;;;;;;3.92;2.50;;;12.80;99.90;;;;;;4818697;29;20107;-68
2022/07/12 03:00:13;;;;;;;4.45;3.03;;;12.80;99.90;;;;;;4814439;29;20085;-68
2022/07/12 03:02:40;;;;;;;4.55;2.90;;;12.80;99.90;;;;;;4822138;29;20071;-70
2022/07/12 03:05:08;;;;;;;4.25;2.90;;;12.80;99.90;;;;;;4816490;29;20046;-68
2022/07/12 03:07:35;;;;;;;6.38;3.15;;;12.80;99.90;;;;;;4815020;29;20097;-68
2022/07/12 03:10:05;;;;;;;5.97;3.63;;;12.80;99.90;;;;;;4804656;29;20069;-67
2022/07/12 03:12:33;;;;;;;6.10;3.17;;;12.80;99.90;;;;;;4804126;29;20137;-68
2022/07/12 03:15:01;;;;;;;4.85;3.20;;;12.70;99.90;;;;;;4792564;29;20119;-68
2022/07/12 03:17:28;;;;;;;5.60;3.28;;;12.70;99.90;;;;;;4812572;29;20521;-68
2022/07/12 03:19:55;;;;;;;4.68;3.40;;;12.70;99.90;;;;;;4820900;29;20494;-67
2022/07/12 03:22:23;;;;;;;5.07;3.60;;;12.60;99.90;;;;;;4810939;29;20042;-68
2022/07/12 03:24:50;;;;;;;5.63;3.45;;;12.60;99.90;;;;;;4809040;29;20058;-67
2022/07/12 03:27:18;;;;;;;5.70;3.30;;;12.60;99.90;;;;;;4814279;29;20051;-67
2022/07/12 03:29:45;;;;;;;5.05;3.05;;;12.60;99.90;;;;;;4811789;29;20063;-67
2022/07/12 03:32:13;;;;;;;6.18;3.78;;;12.70;99.90;;;;;;4813456;29;20095;-67
2022/07/12 03:34:40;;;;;;;5.20;3.75;;;12.60;99.90;;;;;;4804444;29;20113;-67
2022/07/12 03:37:07;;;;;;;6.10;3.35;;;12.60;99.90;;;;;;4821775;29;20420;-68
2022/07/12 03:39:34;;;;;;;4.97;3.50;;;12.60;99.90;;;;;;4809695;29;20382;-68
2022/07/12 03:42:02;;;;;;;4.78;3.13;;;12.70;99.90;;;;;;4816984;29;20053;-68
2022/07/12 03:44:30;;;;;;;5.25;3.45;;;12.70;99.90;;;;;;4820169;29;20047;-68
2022/07/12 03:46:58;;;;;;;7.82;4.78;;;12.80;99.90;;;;;;4820148;29;20053;-69
2022/07/12 03:49:25;;;;;;;6.15;4.40;;;12.80;99.90;;;;;;4821834;29;20046;-69
2022/07/12 03:51:53;;;;;;;7.18;4.15;;;12.90;99.90;;;;;;4814357;29;20121;-68
2022/07/12 03:54:20;;;;;;;7.75;3.17;;;12.90;99.90;;;;;;4793004;29;20138;-68
2022/07/12 03:59:34;;;;;;;11.65;3.53;;;13.10;99.90;;;;;;4814367;29;20061;-69
2022/07/12 04:02:07;;;;;;;6.70;3.72;;;13.10;99.90;;;;;;4810110;29;20429;-69
2022/07/12 04:04:35;;;;;;;4.57;2.90;;;13.10;99.90;;;;;;4817747;29;20137;-69
2022/07/12 04:07:03;;;;;;;4.85;3.00;;;13.20;99.90;;;;;;4814339;29;20043;-69
2022/07/12 04:09:30;;;;;;;6.43;3.20;;;13.20;99.90;;;;;;4819805;29;20096;-69
2022/07/12 04:11:57;;;;;;;4.10;3.00;;;13.30;99.90;;;;;;4829433;29;20045;-69
2022/07/12 04:14:25;;;;;;;8.48;3.63;;;13.30;99.90;;;;;;4800659;29;20527;-69
2022/07/12 04:16:53;;;;;;;5.28;3.13;;;13.30;99.90;;;;;;4818412;29;20391;-68
2022/07/12 04:19:23;;;;;;;4.43;2.80;;;13.30;99.90;;;;;;4820693;29;20058;-68
2022/07/12 04:21:51;;;;;;;3.78;2.42;;;13.40;99.90;;;;;;4791621;29;20535;-69
2022/07/12 04:24:18;;;;;;;4.53;2.80;;;13.50;99.90;;;;;;4805086;29;20077;-68
2022/07/12 04:26:45;;;;;;;5.25;2.70;;;13.50;99.90;;;;;;4819427;29;20055;-68
2022/07/12 04:29:12;;;;;;;4.32;2.90;;;13.60;99.90;;;;;;4815481;29;20050;-68
2022/07/12 04:31:40;;;;;;;5.63;2.85;;;13.60;99.90;;;;;;4810497;29;20078;-69
2022/07/12 04:34:07;;;;;;;5.53;2.92;;;13.70;99.90;;;;;;4805695;29;20424;-68
2022/07/12 04:36:35;;;;;;;3.95;2.67;;;13.70;99.90;;;;;;4794290;29;20051;-68
2022/07/12 04:39:03;;;;;;;4.63;3.05;;;13.80;99.90;;;;;;4817369;29;20050;-68
2022/07/12 04:41:30;;;;;;;4.93;3.15;;;13.80;99.90;;;;;;4819126;29;20064;-69
2022/07/12 04:43:57;;;;;;;4.03;2.60;;;13.80;99.90;;;;;;4804720;29;20427;-69
2022/07/12 04:46:25;;;;;;;4.28;2.60;;;13.80;99.90;;;;;;4801602;29;20047;-68
2022/07/12 04:48:52;;;;;;;8.55;3.00;;;13.90;99.90;;;;;;4809277;29;20035;-68
2022/07/12 04:51:19;;;;;;;6.35;3.00;;;13.90;99.90;;;;;;4812204;29;20050;-68
2022/07/12 04:53:47;;;;;;;6.85;3.20;;;13.90;99.90;;;;;;4801485;29;20411;-68
2022/07/12 04:56:14;;;;;;;4.78;3.05;;;14.00;99.90;;;;;;4793852;29;20137;-69
2022/07/12 04:58:41;;;;;;;5.63;2.72;;;14.10;99.90;;;;;;4810081;29;20050;-68
2022/07/12 05:01:09;;;;;;;4.82;2.88;;;14.10;99.90;;;;;;4807535;29;20058;-68
2022/07/12 05:03:36;;;;;;;4.32;2.83;;;14.10;99.90;;;;;;4813075;29;20058;-68
2022/07/12 05:06:04;;;;;;;5.05;2.80;;;14.10;99.90;;;;;;4803347;29;20074;-66
2022/07/12 05:08:31;;;;;;;5.10;2.47;;;14.20;99.90;;;;;;4813963;29;20054;-68
2022/07/12 05:10:58;;;;;;;6.55;3.15;;;14.10;99.90;;;;;;4813923;29;20125;-68
2022/07/12 05:13:26;;;;;;;6.28;2.88;;;14.20;99.90;;;;;;4828403;29;20529;-68
2022/07/12 05:15:53;;;;;;;6.45;3.25;;;14.30;99.90;;;;;;4809635;29;20047;-68
2022/07/12 05:18:20;;;;;;;5.53;2.65;;;14.30;99.90;;;;;;4803364;29;20073;-68
2022/07/12 05:20:48;;;;;;;4.35;2.50;;;14.40;99.90;;;;;;4816467;29;20047;-68
2022/07/12 05:23:19;;;;;;;3.90;2.63;;;14.50;99.90;;;;;;4816996;29;20095;-68
2022/07/12 05:25:46;;;;;;;4.25;2.50;;;14.50;99.90;;;;;;4803049;29;20054;-69
2022/07/12 05:28:16;;;;;;;5.38;2.95;;;14.70;99.90;;;;;;4809970;29;20507;-69
2022/07/12 05:30:44;;;;;;;4.78;3.00;;;14.70;99.90;;;;;;4815007;29;20047;-68
2022/07/12 05:33:12;;;;;;;3.45;2.47;;;14.70;99.90;;;;;;4800330;29;20532;-68
2022/07/12 05:35:39;;;;;;;3.92;2.70;;;14.70;99.90;;;;;;4800913;29;20049;-68
2022/07/12 05:38:06;;;;;;;5.00;2.63;;;14.80;99.90;;;;;;4799830;29;20053;-68
2022/07/12 05:40:34;;;;;;;5.45;2.75;;;14.90;99.90;;;;;;4800623;29;20054;-68
2022/07/12 05:43:02;;;;;;;4.60;2.75;;;15.00;99.90;;;;;;4826137;29;20081;-68
2022/07/12 05:45:29;;;;;;;4.13;2.70;;;15.00;99.90;;;;;;4812535;29;20055;-68
2022/07/12 05:47:56;;;;;;;4.10;2.60;;;15.00;99.90;;;;;;4817073;29;20241;-68
2022/07/12 05:50:24;;;;;;;5.30;2.80;;;15.00;99.90;;;;;;4804621;29;20042;-68
2022/07/12 05:55:36;;;;;;;5.28;2.70;;;15.20;99.90;;;;;;4808229;29;20125;-68
2022/07/12 05:58:04;;;;;;;5.55;3.38;;;15.30;99.90;;;;;;4802174;29;20420;-68
2022/07/12 06:00:32;;;;;;;5.82;2.95;;;15.40;99.90;;;;;;4796941;29;20057;-69
2022/07/12 06:02:59;;;;;;;3.95;2.33;;;15.40;99.90;;;;;;4811531;29;20486;-68
2022/07/12 06:05:27;;;;;;;5.25;2.88;;;15.50;99.90;;;;;;4809429;29;20077;-68
2022/07/12 06:07:54;;;;;;;4.25;2.67;;;15.60;99.90;;;;;;4804059;29;20569;-68
2022/07/12 06:10:21;;;;;;;3.78;2.33;;;15.50;99.90;;;;;;4810766;29;20059;-68
2022/07/12 06:12:49;;;;;;;6.80;2.60;;;15.60;99.90;;;;;;4808979;29;20163;-69
2022/07/12 06:15:17;;;;;;;5.20;2.50;;;15.60;99.90;;;;;;4812864;29;20133;-66
2022/07/12 06:17:44;;;;;;;7.15;2.47;;;15.70;99.90;;;;;;4812733;29;20579;-65
2022/07/12 06:20:12;;;;;;;5.60;2.28;;;15.90;99.90;;;;;;4798046;29;20059;-66
2022/07/12 06:22:39;;;;;;;4.80;2.40;;;16.10;99.90;;;;;;4803757;29;20070;-66
2022/07/12 06:25:07;;;;;;;7.20;2.28;;;16.30;99.90;;;;;;4815021;29;20054;-66
2022/07/12 06:27:54;;;;;;;5.68;2.03;;;16.40;99.90;;;;;;4813934;29;20395;-66
2022/07/12 06:30:22;;;;;;;3.72;2.00;;;16.40;99.90;;;;;;4815246;29;20092;-66
2022/07/12 06:32:49;;;;;;;4.90;1.92;;;16.60;99.90;;;;;;4790484;29;20417;-66
2022/07/12 06:35:17;;;;;;;4.38;1.90;;;16.70;99.90;;;;;;4816184;29;20042;-66
2022/07/12 06:37:45;;;;;;;3.88;2.10;;;16.90;99.90;;;;;;4814768;29;20420;-66
2022/07/12 06:40:16;;;;;;;2.90;1.50;;;17.10;99.90;;;;;;4809679;29;20059;-66
2022/07/12 06:42:44;;;;;;;4.20;2.20;;;17.20;99.90;;;;;;4813654;29;20265;-65
2022/07/12 06:45:11;;;;;;;3.63;2.20;;;17.20;99.90;;;;;;4809641;29;20467;-66
2022/07/12 06:47:38;;;;;;;5.45;1.92;;;17.20;99.90;;;;;;4817229;29;20061;-67
2022/07/12 06:50:06;;;;;;;3.35;1.77;;;17.30;99.90;;;;;;4819017;29;20502;-66
2022/07/12 06:52:33;;;;;;;8.00;1.77;;;17.30;99.90;;;;;;4817906;29;20077;-65
2022/07/12 06:55:01;;;;;;;6.90;1.73;;;17.50;99.90;;;;;;4810221;29;20084;-66
2022/07/12 06:57:29;;;;;;;3.88;1.77;;;17.70;99.90;;;;;;4803882;29;20047;-67
2022/07/12 06:59:57;;;;;;;3.45;1.83;;;17.80;99.90;;;;;;4814584;29;20536;-66
2022/07/12 07:02:24;;;;;;;5.53;2.20;;;17.80;99.90;;;;;;4818209;29;20057;-67
2022/07/12 07:04:52;;;;;;;4.30;1.50;;;17.90;99.90;;;;;;4816940;29;20054;-65
2022/07/12 07:07:19;;;;;;;2.72;1.50;;;17.90;99.90;;;;;;4816631;29;20053;-67
2022/07/12 07:09:46;;;;;;;5.38;2.00;;;18.00;99.90;;;;;;4819093;29;20050;-65
2022/07/12 07:12:14;;;;;;;3.95;1.98;;;18.00;99.90;;;;;;4818580;29;20149;-65
2022/07/12 07:14:41;;;;;;;6.32;2.88;;;18.00;99.90;;;;;;4813766;29;20046;-67
2022/07/12 07:17:08;;;;;;;4.32;1.45;;;18.10;99.90;;;;;;4818399;29;20046;-67
2022/07/12 07:19:38;;;;;;;5.53;1.50;;;18.20;99.90;;;;;;4818136;29;20058;-68
2022/07/12 07:22:06;;;;;;;2.58;1.30;;;18.30;99.90;;;;;;4807427;29;20562;-66
2022/07/12 07:24:33;;;;;;;4.43;1.45;;;18.30;99.90;;;;;;4813782;29;20060;-69
2022/07/12 07:27:00;;;;;;;4.07;1.42;;;18.40;99.90;;;;;;4816262;29;20077;-67
2022/07/12 07:32:13;;;;;;;4.05;1.60;;;18.30;99.90;;;;;;4803653;29;20100;-67
2022/07/12 07:34:41;;;;;;;3.25;1.38;;;18.20;99.90;;;;;;4807486;29;20556;-67
2022/07/12 07:37:09;;;;;;;3.15;1.50;;;18.30;99.90;;;;;;4810016;29;20129;-66
2022/07/12 07:39:36;;;;;;;2.65;1.35;;;18.20;99.90;;;;;;4816948;29;20046;-67
2022/07/12 07:42:04;;;;;;;3.75;1.50;;;18.30;99.90;;;;;;4818311;29;20050;-68
2022/07/12 07:44:31;;;;;;;4.07;1.63;;;18.30;99.90;;;;;;4817507;29;20054;-68
2022/07/12 07:47:00;;;;;;;2.10;1.30;;;18.40;99.90;;;;;;4815991;29;20494;-67
2022/07/12 07:49:28;;;;;;;9.38;1.90;;;18.70;99.90;;;;;;4795473;29;20061;-68
2022/07/12 07:51:55;;;;;;;4.25;2.33;;;18.80;99.90;;;;;;4811006;29;20047;-68
2022/07/12 07:54:23;;;;;;;3.95;1.70;;;19.00;99.90;;;;;;4804003;29;20061;-67
2022/07/12 07:56:50;;;;;;;2.35;1.52;;;18.70;99.90;;;;;;4814210;29;20039;-67
2022/07/12 07:59:17;;;;;;;2.67;1.70;;;18.80;99.90;;;;;;4809485;29;20129;-67
2022/07/12 08:01:45;;;;;;;2.50;1.38;;;18.90;99.90;;;;;;4813846;29;20409;-68
2022/07/12 08:04:18;;;;;;;4.30;1.50;;;19.10;99.90;;;;;;4810020;29;20058;-70
2022/07/12 08:06:46;;;;;;;2.17;1.35;;;19.30;99.90;;;;;;4814954;29;20574;-68
2022/07/12 08:09:14;;;;;;;3.38;1.55;;;19.50;99.90;;;;;;4798424;29;20108;-66
2022/07/12 08:11:42;;;;;;;3.53;1.40;;;19.60;99.90;;;;;;4820147;29;20089;-69
2022/07/12 08:14:10;;;;;;;3.35;1.25;;;19.70;99.90;;;;;;4820762;29;20421;-67
2022/07/12 08:16:38;;;;;;;2.15;1.27;;;19.80;99.90;;;;;;4797774;29;20481;-66
2022/07/12 08:19:05;;;;;;;5.25;1.50;;;19.70;99.90;;;;;;4795979;29;20053;-67
2022/07/12 08:21:33;;;;;;;2.50;1.20;;;19.70;99.90;;;;;;4804169;29;20057;-66
2022/07/12 08:24:00;;;;;;;2.33;1.30;;;19.60;99.90;;;;;;4821552;29;20162;-67
2022/07/12 08:26:28;;;;;;;3.28;1.40;;;19.70;99.90;;;;;;4818340;29;20426;-67
2022/07/12 08:28:55;;;;;;;2.65;1.10;;;19.80;99.90;;;;;;4834698;29;20054;-66
2022/07/12 08:31:22;;;;;;;2.33;1.23;;;19.90;99.90;;;;;;4812561;29;20495;-67
2022/07/12 08:33:51;;;;;;;2.63;1.00;;;20.20;99.90;;;;;;4803229;29;20517;-66
2022/07/12 08:36:18;;;;;;;2.25;1.00;;;20.40;99.90;;;;;;4803114;29;20074;-67
2022/07/12 08:38:45;;;;;;;3.28;1.10;;;20.60;99.90;;;;;;4803276;29;20503;-66
2022/07/12 08:41:14;;;;;;;2.17;1.00;;;20.60;99.90;;;;;;4803086;29;20554;-66
2022/07/12 08:43:42;;;;;;;2.58;1.02;;;20.50;99.90;;;;;;4815793;29;20062;-65
2022/07/12 08:46:13;;;;;;;1.90;1.10;;;20.60;99.90;;;;;;4820722;29;20069;-66
2022/07/12 08:48:42;;;;;;;4.00;1.13;;;20.50;99.90;;;;;;4819559;29;20169;-66
2022/07/12 08:51:12;;;;;;;2.50;1.08;;;20.50;99.90;;;;;;4820251;29;20050;-67
2022/07/12 08:53:40;;;;;;;4.25;0.98;;;20.60;99.90;;;;;;4816178;29;20077;-66
2022/07/12 08:56:32;;;;;;;2.42;1.30;;;20.80;99.90;;;;;;4817575;29;20054;-66
2022/07/12 08:59:15;;;;;;;2.22;1.10;;;21.10;99.90;;;;;;4818889;29;20169;-66
2022/07/12 09:01:54;;;;;;;3.03;1.10;;;21.00;99.90;;;;;;4817200;29;20047;-68
2022/07/12 09:04:30;;;;;;;1.77;0.90;;;21.10;99.90;;;;;;4801233;29;20148;-67
2022/07/12 09:07:13;;;;;;;4.60;1.20;;;21.40;99.90;;;;;;4820123;29;20391;-67
2022/07/12 09:09:41;;;;;;;3.13;1.13;;;21.60;99.90;;;;;;4817704;29;20050;-67
2022/07/12 09:12:22;;;;;;;2.30;1.00;;;21.70;99.90;;;;;;4809256;29;20077;-67
2022/07/12 09:14:52;;;;;;;2.60;1.15;;;21.50;99.90;;;;;;4819259;29;20169;-67
2022/07/12 09:17:22;;;;;;;3.42;0.98;;;21.60;99.90;;;;;;4819379;29;20054;-67
2022/07/12 09:19:57;;;;;;;3.65;1.13;;;21.60;99.90;;;;;;4820425;29;20749;-66
2022/07/12 09:22:24;;;;;;;4.25;1.30;;;21.40;99.90;;;;;;4820705;29;20054;-66
2022/07/12 09:24:51;;;;;;;2.95;1.20;;;21.50;99.90;;;;;;4820754;29;20057;-67
2022/07/12 09:27:25;;;;;;;3.65;1.20;;;21.70;99.90;;;;;;4815560;29;20055;-66
2022/07/12 09:29:52;;;;;;;1.55;0.80;;;21.90;99.90;;;;;;4820012;29;20062;-66
2022/07/12 09:38:09;;;;;;;1.67;0.80;;;22.20;99.90;;;;;;4803995;29;20086;-66
2022/07/12 09:40:37;;;;;;;2.05;0.98;;;21.80;99.90;;;;;;4819139;29;20137;-66
2022/07/12 09:43:05;;;;;;;2.85;1.00;;;21.80;99.90;;;;;;4820429;29;20086;-66
2022/07/12 09:45:32;;;;;;;2.80;0.90;;;21.80;99.90;;;;;;4818695;29;20073;-67
2022/07/12 09:48:02;;;;;;;2.03;1.00;;;21.80;99.90;;;;;;4818652;29;20572;-66
2022/07/12 09:50:31;;;;;;;1.60;1.10;;;21.90;99.90;;;;;;4819367;29;20053;-66
2022/07/12 09:53:01;;;;;;;1.40;0.95;;;22.00;99.90;;;;;;4803122;29;20047;-67
2022/07/12 09:55:37;;;;;;;2.53;0.80;;;21.90;99.90;;;;;;4827537;29;20070;-66
2022/07/12 09:58:07;;;;;;;4.85;1.05;;;21.80;99.90;;;;;;4819564;29;20047;-70
2022/07/12 10:00:36;;;;;;;3.67;1.02;;;21.90;99.90;;;;;;4820044;29;20062;-66
2022/07/12 10:03:04;;;;;;;1.52;0.80;;;22.00;99.90;;;;;;4813724;29;20082;-66
2022/07/12 10:05:34;;;;;;;2.13;1.00;;;22.20;99.90;;;;;;4815250;29;20082;-66
2022/07/12 10:08:05;;;;;;;1.05;0.75;;;22.50;99.90;;;;;;4819214;29;20414;-66
2022/07/12 10:10:33;;;;;;;1.23;0.60;;;22.50;99.90;;;;;;4805734;29;20042;-67
2022/07/12 10:13:02;;;;;;;1.75;0.90;;;22.60;99.90;;;;;;4796202;29;20081;-67
2022/07/12 10:15:32;;;;;;;3.88;1.05;;;22.60;99.90;;;;;;4818961;29;20058;-67
2022/07/12 10:18:00;;;;;;;2.15;0.55;;;22.70;99.90;;;;;;4818248;29;20069;-66
2022/07/12 10:20:28;;;;;;;0.90;0.70;;;23.10;99.90;;;;;;4807056;29;20112;-67
2022/07/12 10:23:16;;;;;;;1.45;0.77;;;23.40;99.90;;;;;;4813894;29;20047;-67
2022/07/12 10:25:43;;;;;;;2.35;1.10;;;23.50;99.90;;;;;;4817083;29;20081;-66
2022/07/12 10:28:11;;;;;;;1.48;0.80;;;23.50;99.90;;;;;;4819268;29;20046;-65
2022/07/12 10:30:43;;;;;;;1.88;0.90;;;23.60;99.90;;;;;;4825765;29;20422;-66
2022/07/12 10:33:15;;;;;;;1.20;0.80;;;23.50;99.90;;;;;;4819913;29;20042;-67
2022/07/12 10:36:01;;;;;;;2.10;1.00;;;23.60;99.90;;;;;;4818237;29;20150;-67
2022/07/12 10:38:29;;;;;;;5.68;2.13;;;24.00;99.90;;;;;;4810540;29;20422;-67
2022/07/12 10:40:56;;;;;;;2.58;0.90;;;24.20;99.90;;;;;;4809204;29;20137;-67
2022/07/12 10:46:23;;;;;;;1.35;0.90;;;24.60;99.90;;;;;;4803108;29;20050;-66
2022/07/12 10:49:11;;;;;;;0.98;0.73;;;24.10;99.90;;;;;;4803107;29;20046;-66
2022/07/12 10:51:38;;;;;;;1.13;0.73;;;24.20;99.90;;;;;;4817667;29;20051;-66
2022/07/12 10:54:22;;;;;;;2.42;0.70;;;24.60;99.90;;;;;;4810929;29;20049;-65
2022/07/12 10:56:56;;;;;;;1.38;0.80;;;24.50;99.90;;;;;;4802439;29;20046;-67
2022/07/12 10:59:27;;;;;;;2.83;0.80;;;24.70;99.90;;;;;;4815587;29;20058;-66
2022/07/12 11:01:56;;;;;;;1.92;0.73;;;24.50;99.90;;;;;;4812576;29;20085;-66
2022/07/12 11:04:23;;;;;;;0.80;0.60;;;24.30;99.90;;;;;;4819357;29;20552;-67
2022/07/12 11:06:55;;;;;;;1.13;0.77;;;24.50;99.90;;;;;;4819440;29;20150;-67
2022/07/12 11:09:23;;;;;;;;;;;24.60;99.90;;;;;;4797996;29;20049;-67
2022/07/12 11:11:52;;;;;;;1.60;0.82;;;24.70;99.90;;;;;;4810406;29;19924;-67
2022/07/12 11:14:30;;;;;;;1.55;0.70;;;24.50;99.90;;;;;;4808433;29;20051;-67
2022/07/12 11:16:57;;;;;;;1.75;0.88;;;23.80;99.90;;;;;;4804735;29;20043;-67
2022/07/12 11:19:29;;;;;;;3.03;0.88;;;23.60;99.90;;;;;;4811573;29;20498;-67
2022/07/12 11:21:58;;;;;;;1.60;1.10;;;23.50;99.90;;;;;;4805694;29;20057;-68
2022/07/12 11:24:28;;;;;;;2.03;0.90;;;23.90;99.90;;;;;;4818208;29;20063;-67
2022/07/12 11:26:56;;;;;;;1.02;0.80;;;24.70;99.90;;;;;;4819142;29;20050;-68
2022/07/12 11:29:25;;;;;;;1.40;0.70;;;24.70;99.90;;;;;;4806134;29;20485;-68
2022/07/12 11:32:04;;;;;;;3.97;1.30;;;25.40;99.90;;;;;;4822070;29;20073;-67
2022/07/12 11:34:38;;;;;;;1.73;0.77;;;25.90;99.90;;;;;;4814579;29;20046;-67
2022/07/12 11:37:05;;;;;;;2.97;0.90;;;26.10;99.90;;;;;;4818729;29;20055;-68
2022/07/12 11:39:33;;;;;;;1.75;0.90;;;26.20;99.90;;;;;;4822302;29;20056;-67
2022/07/12 11:42:02;;;;;;;2.50;0.73;;;26.50;99.90;;;;;;4817332;29;20050;-68
2022/07/12 11:44:45;;;;;;;1.27;0.60;;;26.90;99.90;;;;;;4835802;29;20081;-68
2022/07/12 11:47:14;;;;;;;1.13;0.60;;;27.40;99.90;;;;;;4834152;29;20055;-68
2022/07/12 11:49:52;;;;;;;1.98;0.77;;;27.40;99.90;;;;;;4801904;29;20585;-68
2022/07/12 11:52:21;;;;;;;2.22;1.40;;;27.00;99.90;;;;;;4815379;29;20074;-68
2022/07/12 11:54:50;;;;;;;6.90;1.02;;;27.00;99.90;;;;;;4818378;29;20073;-67
2022/07/12 11:57:25;;;;;;;2.20;0.70;;;26.90;99.90;;;;;;4818942;29;20141;-67
2022/07/12 11:59:53;;;;;;;1.77;0.80;;;27.20;99.90;;;;;;4819144;29;20046;-67
2022/07/12 12:02:21;;;;;;;2.35;0.70;;;27.40;99.90;;;;;;4819167;29;20133;-66
2022/07/12 12:04:53;;;;;;;1.67;0.70;;;27.40;99.90;;;;;;4814813;29;20390;-67
2022/07/12 12:07:23;;;;;;;3.70;0.63;;;27.40;99.90;;;;;;4819303;29;20087;-67
2022/07/12 12:10:09;;;;;;;1.15;0.68;;;27.50;99.90;;;;;;4815858;29;20038;-66
2022/07/12 12:12:48;;;;;;;1.00;0.68;;;27.50;99.90;;;;;;4818565;29;20088;-67
2022/07/12 12:15:17;;;;;;;2.60;0.77;;;27.30;99.90;;;;;;4808990;29;20077;-66
2022/07/12 12:17:50;;;;;;;1.52;0.77;;;28.20;99.90;;;;;;4818320;29;20592;-68
2022/07/12 12:20:20;;;;;;;1.38;0.60;;;28.80;98.60;;;;;;4818629;29;20518;-66
2022/07/12 12:22:49;;;;;;;2.28;0.80;;;29.10;97.10;;;;;;4808110;29;20057;-67
2022/07/12 12:25:18;;;;;;;1.90;0.82;;;29.30;96.60;;;;;;4807625;29;20506;-67
2022/07/12 12:27:50;;;;;;;2.75;0.90;;;28.30;97.30;;;;;;4820002;29;20061;-68
2022/07/12 12:30:56;;;;;;;3.00;0.70;;;28.10;96.90;;;;;;4816034;29;20525;-68
2022/07/12 12:33:35;;;;;;;2.47;0.57;;;28.20;97.30;;;;;;4813710;29;20119;-68
2022/07/12 12:36:20;;;;;;;1.92;0.82;;;28.70;96.50;;;;;;4803554;29;20130;-68
2022/07/12 12:39:00;;;;;;;0.98;0.68;;;29.60;95.70;;;;;;4838609;29;20385;-68
2022/07/12 12:41:30;;;;;;;1.38;0.65;;;30.20;94.90;;;;;;4812438;29;20054;-68
2022/07/12 12:44:03;;;;;;;2.72;1.00;;;30.20;93.90;;;;;;4819492;29;20128;-67
2022/07/12 12:47:35;;;;;;;0.80;0.60;;;30.50;92.90;;;;;;4819575;29;20082;-68
2022/07/12 12:49:50;;;;;;;1.25;0.75;;;30.60;92.10;;;;;;4814060;29;20119;-69
2022/07/12 12:52:25;;;;;;;1.52;0.70;;;30.80;91.80;;;;;;4804376;29;20085;-68
2022/07/12 12:54:53;;;;;;;1.55;0.80;;;31.10;91.90;;;;;;4803535;29;20447;-68
2022/07/12 12:57:21;;;;;;;3.17;0.80;;;31.90;90.80;;;;;;4821091;29;20451;-67
2022/07/12 12:59:53;;;;;;;3.08;0.50;;;31.80;89.50;;;;;;4814555;29;20067;-66
2022/07/12 13:02:23;;;;;;;2.00;0.70;;;31.70;88.50;;;;;;4789413;29;20525;-68
2022/07/12 13:04:51;;;;;;;5.80;0.75;;;31.50;88.00;;;;;;4820881;29;20585;-67
2022/07/12 13:07:18;;;;;;;1.33;0.77;;;30.30;89.80;;;;;;4821364;29;20047;-67
2022/07/12 13:09:46;;;;;;;2.08;0.70;;;30.00;90.60;;;;;;4827089;29;20525;-67
2022/07/12 13:12:13;;;;;;;1.98;0.77;;;30.20;89.40;;;;;;4822378;29;20057;-67
2022/07/12 13:14:41;;;;;;;2.13;0.82;;;30.20;89.20;;;;;;4832681;29;20522;-68
2022/07/12 13:17:08;;;;;;;3.60;0.73;;;31.40;88.20;;;;;;4819307;29;20043;-68